Time;durP1;ratioP1;P1;durP2;ratioP2;P2;SDS_P1;SDS_P2;PMS_P1;PMS_P2;Temp;Humidity;BMP_temperature;BMP_pressure;BME280_temperature;BME280_humidity;BME280_pressure;Samples;Min_cycle;Max_cycle;Signal;HPM_P1;HPM_P2
2021/05/01 00:00:39;;;;;;;10.37;7.97;;;8.20;99.90;;;;;;5021991;28;20224;-87
2021/05/01 00:03:04;;;;;;;9.63;7.00;;;8.20;99.90;;;;;;5052802;28;20251;-86
2021/05/01 00:05:30;;;;;;;11.20;7.03;;;8.20;99.90;;;;;;5051916;28;20224;-86
2021/05/01 00:07:56;;;;;;;9.93;6.67;;;8.20;99.90;;;;;;5037038;28;20213;-85
2021/05/01 00:10:22;;;;;;;6.43;5.73;;;8.10;99.90;;;;;;5036727;28;20228;-84
2021/05/01 00:12:48;;;;;;;7.30;4.37;;;8.10;99.90;;;;;;5021136;28;20184;-88
2021/05/01 00:15:14;;;;;;;8.30;5.87;;;8.10;99.90;;;;;;5056326;28;20216;-89
2021/05/01 00:17:41;;;;;;;7.23;4.87;;;8.10;99.90;;;;;;5054466;28;20217;-86
2021/05/01 00:20:07;;;;;;;5.77;4.77;;;8.10;99.90;;;;;;5022467;28;20692;-89
2021/05/01 00:22:33;;;;;;;9.00;5.30;;;8.00;99.90;;;;;;5053909;28;20225;-86
2021/05/01 00:24:59;;;;;;;7.70;5.93;;;8.10;99.90;;;;;;5020626;28;20477;-87
2021/05/01 00:27:24;;;;;;;8.73;5.77;;;8.10;99.90;;;;;;5039508;28;20196;-86
2021/05/01 00:29:50;;;;;;;6.40;5.73;;;8.10;99.90;;;;;;5019264;28;20337;-86
2021/05/01 00:32:16;;;;;;;8.23;6.30;;;8.20;99.90;;;;;;5020380;28;20670;-85
2021/05/01 00:34:42;;;;;;;9.37;5.17;;;8.10;99.90;;;;;;5055074;28;20225;-87
2021/05/01 00:37:07;;;;;;;5.80;4.90;;;8.10;99.90;;;;;;5032492;28;20231;-86
2021/05/01 00:39:33;;;;;;;8.00;5.03;;;8.10;99.90;;;;;;5041829;28;21012;-87
2021/05/01 00:41:59;;;;;;;10.83;6.47;;;8.10;99.90;;;;;;5022473;28;20634;-86
2021/05/01 00:44:24;;;;;;;7.23;5.70;;;8.10;99.90;;;;;;5022428;28;20213;-87
2021/05/01 00:46:50;;;;;;;12.80;6.20;;;8.20;99.90;;;;;;5072552;28;20217;-87
2021/05/01 00:49:16;;;;;;;8.53;5.73;;;8.10;99.90;;;;;;5039574;28;20212;-86
2021/05/01 00:51:42;;;;;;;9.97;6.00;;;8.10;99.90;;;;;;5056568;28;20196;-86
2021/05/01 00:54:08;;;;;;;7.00;5.77;;;8.10;99.90;;;;;;5043165;28;20234;-87
2021/05/01 00:56:33;;;;;;;8.33;6.13;;;8.10;99.90;;;;;;5038741;28;21017;-86
2021/05/01 00:59:00;;;;;;;9.37;6.93;;;8.10;99.90;;;;;;5074150;28;20248;-87
2021/05/01 01:01:26;;;;;;;9.80;6.60;;;8.10;99.90;;;;;;5038769;28;21430;-88
2021/05/01 01:03:52;;;;;;;7.27;5.77;;;8.10;99.90;;;;;;5022949;28;20484;-88
2021/05/01 01:06:18;;;;;;;6.83;5.80;;;8.10;99.90;;;;;;5041031;28;20193;-87
2021/05/01 01:08:45;;;;;;;8.33;6.17;;;8.10;99.90;;;;;;5055547;28;20216;-88
2021/05/01 01:11:12;;;;;;;16.57;6.13;;;8.10;99.90;;;;;;5040273;28;20228;-86
2021/05/01 01:13:38;;;;;;;8.80;5.30;;;8.10;99.90;;;;;;5056881;28;20240;-88
2021/05/01 01:16:04;;;;;;;8.40;5.30;;;8.10;99.90;;;;;;5039185;28;20236;-86
2021/05/01 01:18:32;;;;;;;7.87;5.40;;;8.10;99.90;;;;;;5042341;28;20189;-87
2021/05/01 01:21:02;;;;;;;7.67;5.97;;;8.00;99.90;;;;;;5074248;28;20216;-86
2021/05/01 01:23:29;;;;;;;9.40;7.03;;;8.00;99.90;;;;;;5072356;28;20242;-88
2021/05/01 01:25:55;;;;;;;10.77;6.00;;;7.90;99.90;;;;;;5039955;28;20221;-86
2021/05/01 01:28:21;;;;;;;13.13;5.87;;;8.00;99.90;;;;;;5037742;28;20244;-87
2021/05/01 01:30:46;;;;;;;10.93;6.93;;;8.00;99.90;;;;;;5037774;28;20189;-87
2021/05/01 01:33:13;;;;;;;7.97;5.97;;;8.10;99.90;;;;;;5041306;28;20188;-86
2021/05/01 01:35:40;;;;;;;7.43;5.77;;;8.00;99.90;;;;;;5038834;28;20228;-86
2021/05/01 01:38:06;;;;;;;9.97;6.60;;;8.10;99.90;;;;;;5053642;28;20753;-84
2021/05/01 01:40:35;;;;;;;8.93;6.23;;;8.10;99.90;;;;;;5038506;28;21226;-88
2021/05/01 01:43:01;;;;;;;6.87;6.00;;;8.10;99.90;;;;;;5073501;28;20286;-87
2021/05/01 01:45:28;;;;;;;8.50;6.33;;;8.10;99.90;;;;;;5057702;28;20185;-88
2021/05/01 01:47:56;;;;;;;12.40;5.77;;;8.20;99.90;;;;;;5052977;28;20209;-87
2021/05/01 01:50:22;;;;;;;13.67;7.03;;;8.20;99.90;;;;;;5052365;28;20224;-86
2021/05/01 01:52:49;;;;;;;7.67;6.30;;;8.30;99.90;;;;;;5036921;28;20223;-87
2021/05/01 01:55:19;;;;;;;11.87;6.77;;;8.30;99.90;;;;;;5051944;28;20224;-86
2021/05/01 01:57:45;;;;;;;8.97;5.77;;;8.30;99.90;;;;;;5071755;28;20188;-86
2021/05/01 02:00:14;;;;;;;8.63;6.00;;;8.30;99.90;;;;;;5022435;28;20185;-84
2021/05/01 02:02:40;;;;;;;5.40;4.90;;;8.20;99.90;;;;;;5057430;28;20224;-86
2021/05/01 02:05:07;;;;;;;7.90;4.80;;;8.10;99.90;;;;;;5038441;28;20224;-87
2021/05/01 02:07:33;;;;;;;10.27;5.17;;;8.10;99.90;;;;;;5038044;28;20220;-86
2021/05/01 02:09:59;;;;;;;12.40;5.30;;;8.10;99.90;;;;;;5037368;28;20190;-86
2021/05/01 02:12:25;;;;;;;8.03;5.33;;;8.00;99.90;;;;;;5041233;28;20189;-86
2021/05/01 02:14:50;;;;;;;10.00;6.00;;;8.00;99.90;;;;;;5053260;28;20240;-86
2021/05/01 02:17:16;;;;;;;10.00;6.17;;;8.00;99.90;;;;;;5054558;28;20209;-85
2021/05/01 02:19:42;;;;;;;14.53;5.63;;;8.10;99.90;;;;;;5047999;28;20228;-86
2021/05/01 02:22:08;;;;;;;12.70;5.77;;;8.10;99.90;;;;;;5040872;28;20244;-88
2021/05/01 02:24:34;;;;;;;10.13;6.63;;;8.20;99.90;;;;;;5041486;28;20234;-88
2021/05/01 02:27:00;;;;;;;8.17;5.63;;;8.10;99.90;;;;;;5055363;28;20678;-88
2021/05/01 02:29:26;;;;;;;11.40;6.77;;;8.20;99.90;;;;;;5021117;28;20235;-86
2021/05/01 02:31:52;;;;;;;10.17;6.27;;;8.10;99.90;;;;;;5034180;28;20215;-89
2021/05/01 02:34:17;;;;;;;8.87;6.57;;;8.10;99.90;;;;;;5032506;28;20212;-88
2021/05/01 02:36:43;;;;;;;6.97;5.27;;;8.10;99.90;;;;;;5064568;28;21016;-88
2021/05/01 02:39:09;;;;;;;5.20;4.00;;;8.10;99.90;;;;;;5019255;28;20189;-89
2021/05/01 02:41:35;;;;;;;5.50;5.00;;;8.00;99.90;;;;;;5050974;28;20744;-87
2021/05/01 02:44:01;;;;;;;6.80;5.60;;;8.00;99.90;;;;;;5053216;28;20269;-88
2021/05/01 02:46:27;;;;;;;9.77;5.90;;;8.00;99.90;;;;;;5055389;28;20670;-87
2021/05/01 02:48:53;;;;;;;7.80;5.13;;;7.90;99.90;;;;;;5037549;28;20181;-88
2021/05/01 02:51:19;;;;;;;5.93;4.33;;;7.90;99.90;;;;;;5056981;28;20192;-88
2021/05/01 02:53:44;;;;;;;6.43;4.63;;;7.90;99.90;;;;;;5036671;28;20701;-86
2021/05/01 02:56:10;;;;;;;6.50;4.27;;;7.90;99.90;;;;;;5053451;28;20274;-87
2021/05/01 02:58:37;;;;;;;4.60;4.13;;;7.90;99.90;;;;;;5054809;28;20220;-86
2021/05/01 03:01:03;;;;;;;6.07;4.67;;;7.90;99.90;;;;;;5056018;28;20273;-88
2021/05/01 03:03:28;;;;;;;6.67;5.17;;;7.90;99.90;;;;;;5054844;28;20239;-87
2021/05/01 03:05:54;;;;;;;7.83;4.90;;;7.90;99.90;;;;;;5046218;28;20213;-85
2021/05/01 03:08:20;;;;;;;7.17;5.03;;;7.90;99.90;;;;;;5038031;28;20876;-86
2021/05/01 03:10:45;;;;;;;5.50;4.60;;;7.90;99.90;;;;;;5071987;28;21332;-86
2021/05/01 03:13:11;;;;;;;6.43;5.07;;;8.00;99.90;;;;;;5055378;28;20656;-86
2021/05/01 03:15:37;;;;;;;6.60;4.53;;;8.00;99.90;;;;;;5074784;28;20686;-87
2021/05/01 03:18:03;;;;;;;9.20;4.90;;;8.00;99.90;;;;;;5023543;28;21098;-87
2021/05/01 03:20:29;;;;;;;10.37;6.70;;;8.00;99.90;;;;;;5019977;28;20225;-87
2021/05/01 03:22:54;;;;;;;8.30;6.00;;;8.00;99.90;;;;;;5038229;28;20224;-88
2021/05/01 03:25:20;;;;;;;7.53;4.20;;;8.00;99.90;;;;;;5052448;28;20232;-86
2021/05/01 03:27:47;;;;;;;7.43;5.43;;;8.10;99.90;;;;;;5037207;28;20196;-87
2021/05/01 03:30:17;;;;;;;8.93;5.60;;;8.00;99.90;;;;;;5054593;28;20245;-88
2021/05/01 03:32:44;;;;;;;6.77;5.93;;;8.00;99.90;;;;;;5054468;28;20217;-86
2021/05/01 03:35:12;;;;;;;13.77;6.93;;;8.00;99.90;;;;;;5039288;28;20240;-89
2021/05/01 03:37:38;;;;;;;8.73;5.90;;;8.10;99.90;;;;;;5037885;28;20220;-87
2021/05/01 03:40:05;;;;;;;10.77;7.17;;;8.10;99.90;;;;;;5039522;28;20220;-86
2021/05/01 03:42:31;;;;;;;9.33;6.23;;;8.10;99.90;;;;;;5054059;28;20314;-88
2021/05/01 03:44:57;;;;;;;10.83;6.47;;;8.00;99.90;;;;;;5071502;28;20312;-87
2021/05/01 03:47:23;;;;;;;10.87;6.33;;;8.00;99.90;;;;;;5052918;28;20224;-85
2021/05/01 03:49:48;;;;;;;11.40;8.07;;;8.00;99.90;;;;;;5018479;28;20216;-86
2021/05/01 03:52:14;;;;;;;10.60;6.43;;;8.00;99.90;;;;;;5037797;28;20216;-85
2021/05/01 03:54:40;;;;;;;10.30;6.67;;;7.90;99.90;;;;;;5036736;28;20247;-87
2021/05/01 03:57:06;;;;;;;8.83;6.37;;;7.90;99.90;;;;;;5023132;28;20280;-86
2021/05/01 03:59:32;;;;;;;7.20;6.13;;;8.00;99.90;;;;;;5038101;28;20336;-87
2021/05/01 04:01:57;;;;;;;9.97;5.87;;;7.90;99.90;;;;;;5021007;28;20295;-86
2021/05/01 04:04:23;;;;;;;8.53;5.47;;;7.90;99.90;;;;;;5014435;28;21205;-86
2021/05/01 04:06:49;;;;;;;8.00;4.93;;;7.90;99.90;;;;;;5013218;28;20198;-87
2021/05/01 04:09:15;;;;;;;12.10;6.07;;;7.90;99.90;;;;;;5030625;28;20190;-85
2021/05/01 04:11:41;;;;;;;7.60;5.40;;;7.90;99.90;;;;;;5017337;28;20221;-85
2021/05/01 04:14:07;;;;;;;11.00;6.47;;;7.90;99.90;;;;;;5030586;28;20271;-89
2021/05/01 04:16:33;;;;;;;6.13;4.57;;;7.90;99.90;;;;;;5016488;28;20226;-87
2021/05/01 04:18:58;;;;;;;11.43;5.97;;;7.90;99.90;;;;;;5032364;28;20945;-89
2021/05/01 04:21:24;;;;;;;11.43;5.73;;;7.90;99.90;;;;;;5017142;28;20190;-88
2021/05/01 04:23:50;;;;;;;8.37;6.27;;;7.90;99.90;;;;;;5017474;28;20229;-85
2021/05/01 04:26:19;;;;;;;7.93;4.43;;;7.90;99.90;;;;;;5018814;28;20254;-88
2021/05/01 04:28:45;;;;;;;9.73;5.13;;;7.90;99.90;;;;;;5016710;28;20272;-86
2021/05/01 04:31:10;;;;;;;7.63;5.30;;;7.90;99.90;;;;;;5017623;28;20346;-85
2021/05/01 04:33:36;;;;;;;6.73;5.97;;;7.90;99.90;;;;;;5017180;28;20203;-88
2021/05/01 04:36:02;;;;;;;8.63;5.07;;;8.00;99.90;;;;;;5017321;28;20295;-86
2021/05/01 04:38:28;;;;;;;8.03;5.30;;;7.90;99.90;;;;;;5016899;28;20222;-88
2021/05/01 04:40:55;;;;;;;4.97;3.40;;;8.00;99.90;;;;;;5035564;28;20215;-86
2021/05/01 04:43:24;;;;;;;6.23;4.60;;;8.00;99.90;;;;;;5016116;28;20242;-87
2021/05/01 04:45:51;;;;;;;10.03;5.10;;;8.00;99.90;;;;;;5018659;28;20750;-87
2021/05/01 04:48:17;;;;;;;6.50;5.80;;;8.00;99.90;;;;;;5033614;28;20190;-89
2021/05/01 04:50:43;;;;;;;8.43;5.97;;;8.00;99.90;;;;;;5016134;28;20214;-89
2021/05/01 04:53:09;;;;;;;5.03;4.33;;;7.90;99.90;;;;;;5017292;28;20761;-86
2021/05/01 04:55:34;;;;;;;5.50;4.50;;;7.90;99.90;;;;;;5017169;28;20234;-88
2021/05/01 04:58:00;;;;;;;7.73;5.33;;;7.90;99.90;;;;;;5016130;28;20292;-88
2021/05/01 05:00:26;;;;;;;8.50;5.63;;;8.00;99.90;;;;;;5017076;28;20297;-87
2021/05/01 05:02:52;;;;;;;8.50;6.27;;;8.00;99.90;;;;;;5023307;28;20691;-85
2021/05/01 05:05:19;;;;;;;10.13;6.03;;;8.10;99.90;;;;;;5036457;28;20700;-87
2021/05/01 05:07:46;;;;;;;6.53;4.63;;;8.10;99.90;;;;;;5053676;28;20553;-86
2021/05/01 05:10:14;;;;;;;7.63;4.03;;;8.10;99.90;;;;;;5036010;28;20212;-86
2021/05/01 05:12:41;;;;;;;6.87;5.93;;;8.10;99.90;;;;;;5053103;28;20209;-85
2021/05/01 05:15:08;;;;;;;5.73;4.37;;;8.10;99.90;;;;;;5072585;28;20233;-87
2021/05/01 05:17:34;;;;;;;6.87;4.67;;;8.10;99.90;;;;;;5052195;28;20229;-88
2021/05/01 05:19:59;;;;;;;15.43;5.07;;;8.20;99.90;;;;;;5020232;28;20225;-86
2021/05/01 05:22:25;;;;;;;7.93;6.27;;;8.30;99.90;;;;;;5052558;28;20697;-87
2021/05/01 05:24:51;;;;;;;5.87;5.07;;;8.30;99.90;;;;;;5017985;28;21031;-87
2021/05/01 05:27:17;;;;;;;7.60;4.80;;;8.30;99.90;;;;;;5038788;28;20267;-86
2021/05/01 05:29:50;;;;;;;5.13;3.17;;;8.30;99.90;;;;;;5036841;28;20493;-86
2021/05/01 05:32:17;;;;;;;6.90;3.70;;;8.30;99.90;;;;;;5036216;28;20423;-85
2021/05/01 05:34:43;;;;;;;4.27;3.87;;;8.30;99.90;;;;;;5053018;28;20269;-86
2021/05/01 05:37:09;;;;;;;5.63;3.93;;;8.10;99.90;;;;;;5053438;28;20213;-87
2021/05/01 05:39:35;;;;;;;6.57;4.10;;;8.20;99.90;;;;;;5022181;28;20181;-87
2021/05/01 05:42:01;;;;;;;4.80;4.00;;;8.30;99.90;;;;;;5061056;28;20225;-87
2021/05/01 05:44:27;;;;;;;4.23;3.77;;;8.40;99.90;;;;;;5051830;28;20245;-85
2021/05/01 05:46:53;;;;;;;5.33;4.27;;;8.50;99.90;;;;;;5019299;28;20225;-86
2021/05/01 05:49:18;;;;;;;6.43;5.10;;;8.60;99.90;;;;;;5034385;28;20213;-88
2021/05/01 05:51:44;;;;;;;12.67;4.87;;;8.80;99.90;;;;;;5035295;28;20182;-88
2021/05/01 05:54:10;;;;;;;5.97;4.30;;;8.90;99.90;;;;;;5054228;28;20186;-88
2021/05/01 05:56:36;;;;;;;4.63;3.00;;;8.90;99.90;;;;;;5036084;28;20220;-87
2021/05/01 05:59:02;;;;;;;5.87;4.47;;;9.00;99.90;;;;;;5035538;28;20707;-87
2021/05/01 06:01:31;;;;;;;4.93;4.37;;;9.10;99.90;;;;;;5052239;28;20381;-87
2021/05/01 06:03:58;;;;;;;5.00;3.63;;;9.10;99.90;;;;;;5053763;28;20229;-88
2021/05/01 06:06:32;;;;;;;4.00;3.60;;;9.10;99.90;;;;;;5052223;28;21227;-87
2021/05/01 06:08:58;;;;;;;6.50;4.23;;;9.00;99.90;;;;;;5053800;28;20224;-88
2021/05/01 06:11:25;;;;;;;4.07;2.93;;;8.70;99.90;;;;;;5051497;28;20977;-88
2021/05/01 06:13:52;;;;;;;3.10;2.90;;;8.60;99.90;;;;;;5035565;28;20836;-87
2021/05/01 06:16:20;;;;;;;2.17;1.97;;;8.60;99.90;;;;;;5035299;28;20264;-87
2021/05/01 06:18:47;;;;;;;3.27;2.57;;;8.60;99.90;;;;;;5068590;28;20189;-88
2021/05/01 06:21:14;;;;;;;2.70;2.50;;;8.60;99.90;;;;;;5054637;28;20289;-87
2021/05/01 06:23:40;;;;;;;3.53;2.10;;;8.70;99.90;;;;;;5051727;28;20217;-88
2021/05/01 06:26:07;;;;;;;4.40;2.80;;;8.80;99.90;;;;;;5054651;28;20678;-87
2021/05/01 06:28:34;;;;;;;2.53;2.00;;;8.80;99.90;;;;;;5034940;28;20573;-88
2021/05/01 06:31:04;;;;;;;3.67;2.90;;;9.00;99.90;;;;;;5050687;28;21672;-88
2021/05/01 06:33:30;;;;;;;3.13;2.13;;;9.20;99.90;;;;;;5033140;28;20190;-88
2021/05/01 06:35:57;;;;;;;2.63;2.13;;;9.40;99.90;;;;;;5052816;28;20244;-88
2021/05/01 06:38:27;;;;;;;2.47;2.23;;;9.50;99.90;;;;;;5051032;28;20249;-88
2021/05/01 06:40:57;;;;;;;1.97;1.60;;;9.60;99.90;;;;;;5050309;28;20206;-89
2021/05/01 06:43:48;;;;;;;4.10;1.20;;;9.70;99.90;;;;;;5051713;28;20206;-88
2021/05/01 06:46:20;;;;;;;1.53;1.33;;;9.70;99.90;;;;;;5051016;28;20694;-90
2021/05/01 06:48:54;;;;;;;2.80;1.83;;;9.90;99.90;;;;;;5029573;28;20198;-88
2021/05/01 06:51:20;;;;;;;1.70;1.50;;;10.00;99.90;;;;;;5050376;28;21253;-88
2021/05/01 06:53:46;;;;;;;3.47;2.10;;;10.10;99.90;;;;;;5047681;28;21319;-90
2021/05/01 06:56:13;;;;;;;1.97;1.40;;;10.10;99.90;;;;;;5016537;28;20232;-89
2021/05/01 06:58:40;;;;;;;2.60;2.20;;;9.80;99.90;;;;;;5034348;28;20224;-86
2021/05/01 07:01:09;;;;;;;1.93;1.83;;;9.90;99.90;;;;;;5032653;28;20334;-89
2021/05/01 07:03:41;;;;;;;2.57;1.30;;;10.10;99.90;;;;;;5051500;28;20698;-88
2021/05/01 07:06:07;;;;;;;3.03;1.60;;;10.20;99.90;;;;;;5049239;28;20236;-91
2021/05/01 07:08:33;;;;;;;3.27;1.50;;;10.60;99.90;;;;;;5050234;28;20222;-89
2021/05/01 07:11:00;;;;;;;3.40;1.60;;;10.80;99.90;;;;;;5051430;28;20221;-91
2021/05/01 07:13:29;;;;;;;1.70;1.60;;;10.60;99.90;;;;;;5050015;28;20229;-88
2021/05/01 07:16:00;;;;;;;2.87;1.77;;;10.80;99.90;;;;;;5051896;28;20304;-87
2021/05/01 07:18:32;;;;;;;3.43;2.00;;;11.00;99.90;;;;;;5051285;28;20217;-87
2021/05/01 07:20:59;;;;;;;3.87;2.90;;;11.20;99.90;;;;;;5048525;28;20241;-89
2021/05/01 07:23:26;;;;;;;2.40;2.20;;;11.20;99.90;;;;;;5049516;28;20274;-88
2021/05/01 07:25:52;;;;;;;1.60;1.50;;;11.20;99.90;;;;;;5041711;28;20702;-89
2021/05/01 07:28:26;;;;;;;2.10;1.83;;;11.20;99.90;;;;;;5046176;28;20310;-90
2021/05/01 07:30:56;;;;;;;1.47;1.27;;;11.50;99.90;;;;;;5047010;28;20980;-87
2021/05/01 07:33:34;;;;;;;2.00;1.63;;;11.40;99.90;;;;;;5049738;28;20181;-89
2021/05/01 07:36:11;;;;;;;2.63;1.70;;;11.40;99.90;;;;;;5046924;28;20251;-90
2021/05/01 07:38:43;;;;;;;2.33;1.70;;;11.60;99.90;;;;;;5048655;28;20239;-88
2021/05/01 07:41:13;;;;;;;1.53;1.40;;;11.80;99.90;;;;;;5064800;28;20220;-91
2021/05/01 07:43:45;;;;;;;1.53;1.40;;;11.70;99.90;;;;;;5048899;28;20209;-88
2021/05/01 07:46:12;;;;;;;1.90;1.50;;;11.60;99.90;;;;;;5052366;28;20218;-87
2021/05/01 07:48:40;;;;;;;2.33;1.40;;;11.20;99.90;;;;;;5034841;28;20200;-87
2021/05/01 07:51:06;;;;;;;2.37;1.30;;;11.00;99.90;;;;;;5033680;28;20331;-87
2021/05/01 07:53:32;;;;;;;1.27;1.23;;;11.00;99.90;;;;;;5066735;28;20218;-86
2021/05/01 07:56:00;;;;;;;1.57;1.43;;;11.10;99.90;;;;;;5048827;28;20310;-87
2021/05/01 07:58:25;;;;;;;2.23;1.80;;;11.10;99.90;;;;;;5017734;28;20339;-87
2021/05/01 08:00:51;;;;;;;1.40;1.07;;;11.20;99.90;;;;;;5030717;28;20246;-90
2021/05/01 08:03:17;;;;;;;1.97;1.87;;;11.30;99.90;;;;;;5018057;28;20236;-90
2021/05/01 08:05:43;;;;;;;1.70;1.30;;;11.50;99.90;;;;;;5018211;28;20228;-89
2021/05/01 08:08:09;;;;;;;2.23;1.90;;;12.70;99.90;;;;;;5035396;28;20225;-89
2021/05/01 08:10:34;;;;;;;3.17;2.07;;;15.00;99.90;;;;;;5020376;28;20238;-89
2021/05/01 08:13:00;;;;;;;3.47;1.97;;;15.60;99.90;;;;;;5035108;28;20226;-88
2021/05/01 08:15:30;;;;;;;2.17;1.27;;;15.20;99.90;;;;;;5020347;28;20550;-87
2021/05/01 08:17:56;;;;;;;1.87;1.73;;;14.60;99.90;;;;;;5038989;28;20320;-87
2021/05/01 08:20:22;;;;;;;1.33;1.23;;;12.90;99.90;;;;;;5037483;28;20218;-88
2021/05/01 08:22:47;;;;;;;1.50;1.40;;;11.70;99.90;;;;;;5021302;28;20235;-88
2021/05/01 08:25:13;;;;;;;2.60;1.30;;;11.10;99.90;;;;;;5053502;28;20610;-86
2021/05/01 08:27:40;;;;;;;1.93;1.47;;;10.70;99.90;;;;;;5020588;28;20239;-86
2021/05/01 08:30:08;;;;;;;1.73;1.27;;;10.40;99.90;;;;;;5037375;28;20226;-91
2021/05/01 08:32:34;;;;;;;1.87;1.40;;;10.40;99.90;;;;;;5053140;28;20364;-86
2021/05/01 08:34:59;;;;;;;2.17;1.00;;;10.30;99.90;;;;;;5023605;28;20223;-89
2021/05/01 08:37:25;;;;;;;1.77;1.07;;;10.20;99.90;;;;;;5036859;28;20317;-86
2021/05/01 08:39:51;;;;;;;1.70;1.43;;;10.20;99.90;;;;;;5055240;28;20177;-88
2021/05/01 08:42:17;;;;;;;1.93;1.40;;;10.20;99.90;;;;;;5038036;28;20637;-87
2021/05/01 08:44:43;;;;;;;0.80;0.80;;;10.30;99.90;;;;;;5020426;28;20222;-86
2021/05/01 08:47:09;;;;;;;1.47;1.37;;;10.20;99.90;;;;;;5054861;28;20515;-86
2021/05/01 08:49:35;;;;;;;3.07;1.70;;;10.10;99.90;;;;;;5037565;28;21058;-87
2021/05/01 08:52:00;;;;;;;1.27;1.17;;;9.90;99.90;;;;;;5057171;28;20264;-85
2021/05/01 08:54:26;;;;;;;1.57;1.47;;;9.80;99.90;;;;;;5053966;28;20198;-86
2021/05/01 08:56:52;;;;;;;2.40;1.47;;;9.50;99.90;;;;;;5051069;28;20228;-85
2021/05/01 08:59:19;;;;;;;2.00;1.00;;;9.70;99.90;;;;;;5036655;28;20217;-85
2021/05/01 09:01:50;;;;;;;1.87;1.67;;;9.60;99.90;;;;;;5053048;28;20260;-85
2021/05/01 09:04:17;;;;;;;1.30;1.17;;;9.60;99.90;;;;;;5051981;28;20233;-85
2021/05/01 09:06:43;;;;;;;1.53;1.27;;;9.60;99.90;;;;;;5036053;28;20190;-85
2021/05/01 09:09:10;;;;;;;2.63;1.20;;;9.60;99.90;;;;;;5054082;28;20196;-85
2021/05/01 09:11:37;;;;;;;2.03;1.60;;;9.70;99.90;;;;;;5033746;28;21179;-86
2021/05/01 09:14:21;;;;;;;1.47;1.03;;;10.30;99.90;;;;;;5052560;28;20616;-86
2021/05/01 09:16:57;;;;;;;0.90;0.87;;;11.50;99.90;;;;;;5053904;28;20243;-84
2021/05/01 09:19:33;;;;;;;1.13;1.00;;;12.50;99.90;;;;;;5050431;28;21078;-86
2021/05/01 09:22:04;;;;;;;1.20;1.10;;;12.00;99.90;;;;;;5053564;28;20196;-85
2021/05/01 09:24:31;;;;;;;1.13;1.07;;;12.20;99.90;;;;;;5052243;28;20182;-85
2021/05/01 09:26:57;;;;;;;2.20;1.60;;;12.40;99.90;;;;;;5068995;28;20214;-88
2021/05/01 09:29:31;;;;;;;1.57;1.47;;;12.00;99.90;;;;;;5051335;28;20267;-85
2021/05/01 09:32:00;;;;;;;1.63;1.53;;;11.70;99.90;;;;;;5051564;28;20229;-85
2021/05/01 09:34:39;;;;;;;2.13;1.47;;;11.60;99.90;;;;;;5052630;28;21271;-86
2021/05/01 09:37:09;;;;;;;1.37;1.23;;;11.60;99.90;;;;;;5053629;28;20221;-85
2021/05/01 09:39:35;;;;;;;1.00;0.93;;;11.40;99.90;;;;;;5035703;28;20185;-84
2021/05/01 09:42:14;;;;;;;1.37;1.00;;;10.80;99.90;;;;;;5051438;28;20577;-83
2021/05/01 09:44:39;;;;;;;1.87;1.70;;;10.50;99.90;;;;;;5051219;28;20221;-83
2021/05/01 09:47:17;;;;;;;1.07;1.03;;;10.60;99.90;;;;;;5033153;28;20584;-83
2021/05/01 09:49:48;;;;;;;0.97;0.80;;;10.80;99.90;;;;;;5049365;28;20271;-83
2021/05/01 09:52:15;;;;;;;0.70;0.70;;;10.60;99.90;;;;;;5049845;28;20214;-85
2021/05/01 09:54:47;;;;;;;6.83;1.50;;;10.40;99.90;;;;;;5033326;28;20209;-83
2021/05/01 09:57:21;;;;;;;0.80;0.80;;;10.50;99.90;;;;;;5053675;28;20188;-83
2021/05/01 09:59:52;;;;;;;1.47;1.37;;;10.70;99.90;;;;;;5068739;28;20222;-83
2021/05/01 10:02:20;;;;;;;1.90;1.80;;;10.70;99.90;;;;;;5052361;28;20233;-84
2021/05/01 10:05:14;;;;;;;1.10;1.00;;;10.60;99.90;;;;;;5072895;28;20280;-83
2021/05/01 10:07:50;;;;;;;0.87;0.87;;;10.60;99.90;;;;;;5054105;28;20220;-84
2021/05/01 10:10:17;;;;;;;2.07;1.43;;;10.60;99.90;;;;;;5071980;28;20312;-84
2021/05/01 10:12:43;;;;;;;1.60;1.50;;;10.50;99.90;;;;;;5038034;28;20185;-83
2021/05/01 10:15:17;;;;;;;1.90;1.20;;;10.20;99.90;;;;;;5023141;28;20278;-86
2021/05/01 10:17:45;;;;;;;1.37;1.30;;;10.30;99.90;;;;;;5052965;28;20220;-86
2021/05/01 10:20:12;;;;;;;1.97;1.30;;;10.20;99.90;;;;;;5063000;28;20331;-84
2021/05/01 10:22:43;;;;;;;1.97;1.70;;;10.40;99.90;;;;;;5035422;28;20298;-83
2021/05/01 10:25:11;;;;;;;1.60;1.40;;;10.30;99.90;;;;;;5052738;28;20221;-82
2021/05/01 10:27:48;;;;;;;1.33;1.23;;;10.40;99.90;;;;;;5074140;28;20199;-83
2021/05/01 10:32:59;;;;;;;1.53;1.43;;;10.50;99.90;;;;;;5072237;28;20328;-84
2021/05/01 10:35:30;;;;;;;1.13;1.13;;;10.30;99.90;;;;;;5073140;28;20277;-82
2021/05/01 10:37:58;;;;;;;1.47;1.37;;;10.60;99.90;;;;;;5070845;28;20221;-83
2021/05/01 10:40:39;;;;;;;1.43;0.97;;;10.50;99.90;;;;;;5053232;28;20694;-84
2021/05/01 10:43:13;;;;;;;13.30;1.97;;;10.50;99.90;;;;;;5070175;28;20219;-82
2021/05/01 10:45:39;;;;;;;1.43;1.30;;;11.50;99.90;;;;;;5069466;28;20271;-85
2021/05/01 10:48:10;;;;;;;1.93;1.80;;;12.40;99.90;;;;;;5070081;28;20216;-82
2021/05/01 10:50:37;;;;;;;1.77;1.33;;;12.70;99.90;;;;;;5052962;28;20249;-84
2021/05/01 10:53:21;;;;;;;2.10;2.00;;;12.20;99.90;;;;;;5053288;28;20217;-85
2021/05/01 10:55:50;;;;;;;1.13;1.03;;;12.00;99.90;;;;;;5053272;28;20682;-84
2021/05/01 10:58:28;;;;;;;1.47;1.37;;;11.80;99.90;;;;;;5054643;28;20220;-84
2021/05/01 11:00:54;;;;;;;1.37;1.27;;;11.60;99.90;;;;;;5052326;28;20193;-83
2021/05/01 11:03:22;;;;;;;2.13;1.77;;;11.50;99.90;;;;;;5037630;28;21513;-83
2021/05/01 11:05:50;;;;;;;1.50;1.30;;;11.50;99.90;;;;;;5036143;28;20217;-83
2021/05/01 11:08:33;;;;;;;2.10;1.40;;;11.90;99.90;;;;;;5053998;28;20222;-83
2021/05/01 11:11:01;;;;;;;1.37;1.27;;;12.10;99.90;;;;;;5047864;28;20208;-83
2021/05/01 11:13:29;;;;;;;1.37;1.17;;;12.20;99.90;;;;;;5052643;28;20221;-83
2021/05/01 11:15:59;;;;;;;1.20;0.93;;;11.90;99.90;;;;;;5053039;28;20200;-85
2021/05/01 11:18:27;;;;;;;0.70;0.70;;;11.60;99.90;;;;;;5054770;28;20593;-83
2021/05/01 11:21:00;;;;;;;1.50;1.03;;;10.90;99.90;;;;;;5069026;28;20224;-83
2021/05/01 11:23:30;;;;;;;0.97;0.60;;;10.80;99.90;;;;;;5064988;28;20278;-83
2021/05/01 11:25:59;;;;;;;1.57;1.00;;;10.90;99.90;;;;;;5031720;28;20627;-85
2021/05/01 11:28:25;;;;;;;0.70;0.70;;;11.00;99.90;;;;;;5065642;28;21044;-85
2021/05/01 11:30:53;;;;;;;0.90;0.70;;;11.10;99.90;;;;;;5033935;28;20188;-87
2021/05/01 11:33:20;;;;;;;0.50;0.50;;;11.10;99.90;;;;;;5050584;28;20196;-87
2021/05/01 11:35:48;;;;;;;0.50;0.50;;;11.10;99.90;;;;;;5033697;28;20229;-87
2021/05/01 11:38:25;;;;;;;1.37;1.27;;;11.20;99.90;;;;;;5050782;28;20221;-85
2021/05/01 11:40:54;;;;;;;0.47;0.47;;;11.80;99.90;;;;;;5049092;28;20215;-84
2021/05/01 11:43:25;;;;;;;0.60;0.60;;;11.70;99.90;;;;;;5051359;28;20290;-86
2021/05/01 11:45:59;;;;;;;0.47;0.47;;;11.60;99.90;;;;;;5050793;28;20189;-86
2021/05/01 11:48:30;;;;;;;0.87;0.83;;;11.80;99.90;;;;;;5049941;28;20208;-86
2021/05/01 11:50:57;;;;;;;1.00;0.87;;;11.60;99.90;;;;;;5049345;28;20225;-85
2021/05/01 11:53:26;;;;;;;0.40;0.40;;;11.40;99.90;;;;;;5034579;28;20232;-88
2021/05/01 11:56:20;;;;;;;1.03;0.70;;;11.00;99.90;;;;;;5052695;28;20324;-89
2021/05/01 11:58:48;;;;;;;0.93;0.93;;;11.10;99.90;;;;;;5035907;28;20213;-86
2021/05/01 12:01:21;;;;;;;0.90;0.90;;;11.10;99.90;;;;;;5018069;28;20244;-87
2021/05/01 12:04:01;;;;;;;1.13;1.10;;;11.30;99.90;;;;;;5052899;28;20240;-86
2021/05/01 12:06:41;;;;;;;3.73;0.73;;;11.20;99.90;;;;;;5053774;28;20216;-86
2021/05/01 12:09:39;;;;;;;1.77;0.80;;;11.20;99.90;;;;;;5072576;28;20295;-87
2021/05/01 12:12:08;;;;;;;2.47;1.60;;;11.10;99.90;;;;;;5047167;28;21131;-86
2021/05/01 12:14:34;;;;;;;1.00;0.80;;;11.30;99.90;;;;;;5071452;28;20236;-89
2021/05/01 12:17:12;;;;;;;2.43;1.27;;;11.30;99.90;;;;;;5073704;28;20228;-86
2021/05/01 12:19:47;;;;;;;1.40;1.40;;;11.30;99.90;;;;;;5054276;28;20224;-85
2021/05/01 12:22:29;;;;;;;2.30;1.90;;;11.50;99.90;;;;;;5037148;28;20293;-89
2021/05/01 12:24:56;;;;;;;1.73;1.40;;;11.80;99.90;;;;;;5049715;28;20199;-87
2021/05/01 12:27:53;;;;;;;2.17;1.63;;;12.00;99.90;;;;;;5034131;28;20197;-85
2021/05/01 12:30:40;;;;;;;1.27;1.27;;;12.10;99.90;;;;;;5051398;28;20217;-87
2021/05/01 12:33:24;;;;;;;3.20;1.40;;;12.30;99.90;;;;;;5055025;28;20241;-87
2021/05/01 12:36:02;;;;;;;2.87;1.33;;;12.30;99.90;;;;;;5068525;28;20224;-85
2021/05/01 12:38:31;;;;;;;1.43;0.80;;;12.60;99.90;;;;;;5054888;28;20244;-88
2021/05/01 12:41:06;;;;;;;2.93;1.83;;;12.50;99.90;;;;;;5075204;28;20217;-86
2021/05/01 12:43:32;;;;;;;2.53;1.37;;;12.30;99.90;;;;;;5056592;28;20219;-87
2021/05/01 12:45:59;;;;;;;1.63;1.13;;;12.20;99.90;;;;;;5056308;28;20475;-87
2021/05/01 12:48:43;;;;;;;1.53;1.07;;;12.10;99.90;;;;;;5073552;28;20228;-86
2021/05/01 12:51:12;;;;;;;1.20;1.10;;;12.50;99.90;;;;;;5055156;28;20216;-86
2021/05/01 12:53:39;;;;;;;1.37;0.90;;;12.20;99.90;;;;;;5057091;28;20294;-86
2021/05/01 12:56:24;;;;;;;1.33;1.27;;;11.60;99.90;;;;;;5057771;28;20228;-88
2021/05/01 12:59:19;;;;;;;0.93;0.83;;;12.10;99.90;;;;;;5058177;28;20221;-86